Аэропорт: Михайловка. Барнаул

ICAO: UNBB

METAR:
2021-01-24 18:00:00
UNBB 241800Z 27006MPS CAVOK M33/M38 Q1041 R24/450342 NOSIG RMK QFE758
METAR:
2021-01-24 17:00:00
TAF UNBB 241700Z 2418/2518 27003G08MPS 9999 SCT040 BECMG 2420/2421 20003MPS TEMPO 2420/2505 0300 FG FU BKN002